»·PEaware :: N583SG KSLC-KHND

N583SG :: KSLC-KHND

FLIGHT INFORMATION

Flight Status: Arrived
Operator: Privately registered:
United States
More flights under this callsign
Pilot: Scott G. (88)
Aircraft: BOEING 737-200
(B732)
More flights by this aircraft type
Origin: KSLC Salt Lake City Intl
United States
Destination: KHND Henderson
United States
More flights between these airports :: More routes between these airports
Route: +SEYVR3 MLF LUXOR2
File this flight plan on PilotEdge
Remarks:
Altitude:
(Current/Filed)
34,000ft
Speed:
(Current/Filed)
420kts
Departed: 17-Mar-18 09:16 AM
Arrived: 17-Mar-18 10:43 AM
Distance/Time
Traveled:
325nm/1:26
Distance/Time
To Go:
Arrived

Flight Plot

Page will automatically refresh every two minutes.

Flight plan parsing failed; only flown route is shown


Map Options




Map Legend


Flown Route
Filed Route
Departure Airport
Arrival Airport
Navaid (VOR, NDB)
Fix

Horizontal Profiles

Position Reports

Time Latitude Longitude Heading Altitude Ground
Speed
17-Mar-18 08:34 40.775671 -111.959392 357 4236ft 0kts
17-Mar-18 08:35 40.775671 -111.959392 357 4236ft 0kts
17-Mar-18 08:36 40.775671 -111.959392 357 4236ft 0kts
17-Mar-18 08:37 40.775671 -111.959392 357 4236ft 0kts
17-Mar-18 08:38 40.775671 -111.959392 357 4236ft 0kts
17-Mar-18 08:39 40.775671 -111.959392 357 4236ft 0kts
17-Mar-18 08:40 40.775671 -111.959392 357 4236ft 0kts
17-Mar-18 08:41 40.775671 -111.959392 357 4236ft 0kts
17-Mar-18 08:42 40.775671 -111.959392 357 4236ft 0kts
17-Mar-18 08:43 40.775671 -111.959392 357 4236ft 0kts
17-Mar-18 08:44 40.775671 -111.959392 357 4236ft 0kts
17-Mar-18 08:45 40.775671 -111.959392 357 4236ft 0kts
17-Mar-18 08:46 40.775671 -111.959392 357 4236ft 0kts
17-Mar-18 08:47 40.775671 -111.959392 357 4236ft 0kts
17-Mar-18 08:48 40.775671 -111.959392 357 4236ft 0kts
17-Mar-18 08:49 40.775671 -111.959392 357 4236ft 0kts
17-Mar-18 08:50 40.775671 -111.959392 357 4236ft 0kts
17-Mar-18 08:51 40.775671 -111.959392 357 4236ft 0kts
17-Mar-18 08:52 40.775671 -111.959392 357 4236ft 0kts
17-Mar-18 08:53 40.775671 -111.959392 357 4236ft 0kts
17-Mar-18 08:54 40.775671 -111.959392 357 4236ft 0kts
17-Mar-18 08:55 40.775671 -111.959392 357 4236ft 0kts
17-Mar-18 08:56 40.775671 -111.959392 357 4236ft 0kts
17-Mar-18 08:57 40.775671 -111.959392 357 4236ft 0kts
17-Mar-18 08:58 40.775671 -111.959392 357 4236ft 0kts
17-Mar-18 08:59 40.775671 -111.959392 357 4236ft 0kts
17-Mar-18 09:00 40.775671 -111.959392 357 4236ft 0kts
17-Mar-18 09:01 40.775671 -111.959392 357 4236ft 0kts
17-Mar-18 09:02 40.775671 -111.959392 357 4236ft 0kts
17-Mar-18 09:03 40.775671 -111.959392 357 4236ft 0kts
17-Mar-18 09:04 40.775671 -111.959392 357 4236ft 0kts
17-Mar-18 09:05 40.775671 -111.959392 357 4236ft 0kts
17-Mar-18 09:06 40.775671 -111.959392 357 4236ft 0kts
17-Mar-18 09:07 40.775671 -111.959392 357 4236ft 0kts
17-Mar-18 09:08 40.776071 -111.959950 269 4236ft 0kts
17-Mar-18 09:09 40.776071 -111.959950 269 4236ft 0kts
17-Mar-18 09:10 40.775071 -111.960642 180 4236ft 19kts
17-Mar-18 09:11 40.772915 -111.960683 251 4236ft 0kts
17-Mar-18 09:12 40.772915 -111.960683 251 4236ft 0kts
17-Mar-18 09:13 40.772915 -111.960683 251 4236ft 0kts
17-Mar-18 09:14 40.773144 -111.962155 358 4236ft 15kts
17-Mar-18 09:15 40.798824 -111.961915 6 4860ft 163kts
17-Mar-18 09:16 40.861082 -111.955843 7 6723ft 243kts
17-Mar-18 09:17 40.935621 -111.947646 6 7495ft 282kts
17-Mar-18 09:18 41.014086 -111.942979 2 7494ft 284kts
17-Mar-18 09:19 41.093655 -111.940231 2 8250ft 295kts
17-Mar-18 09:20 41.161595 -111.937004 347 10986ft 301kts
17-Mar-18 09:21 41.195632 -112.014580 239 13886ft 265kts
17-Mar-18 09:22 41.132840 -112.059171 200 16462ft 270kts
17-Mar-18 09:23 41.059256 -112.091357 199 18170ft 300kts
17-Mar-18 09:24 40.974648 -112.123685 199 19518ft 327kts
17-Mar-18 09:25 40.887980 -112.154903 199 21323ft 330kts
17-Mar-18 09:26 40.798692 -112.186040 199 22847ft 336kts
17-Mar-18 09:27 40.708157 -112.217790 199 24162ft 342kts
17-Mar-18 09:28 40.616244 -112.250892 199 25172ft 351kts
17-Mar-18 09:29 40.520836 -112.283594 199 25869ft 364kts
17-Mar-18 09:30 40.422140 -112.317814 199 26663ft 371kts
17-Mar-18 09:31 40.322115 -112.352508 200 27476ft 374kts
17-Mar-18 09:32 40.221866 -112.387358 200 28303ft 381kts
17-Mar-18 09:33 40.129312 -112.419211 200 29443ft 370kts
17-Mar-18 09:34 40.036520 -112.451170 200 30403ft 362kts
17-Mar-18 09:35 39.943307 -112.483189 201 31535ft 353kts
17-Mar-18 09:36 39.847263 -112.515793 201 31946ft 361kts
17-Mar-18 09:37 39.750670 -112.548599 201 31945ft 376kts
17-Mar-18 09:38 39.648627 -112.583268 201 31938ft 384kts
17-Mar-18 09:39 39.546968 -112.617705 201 31933ft 371kts
17-Mar-18 09:40 39.449084 -112.650512 200 31932ft 358kts
17-Mar-18 09:41 39.352073 -112.672201 193 31944ft 354kts
17-Mar-18 09:42 39.256745 -112.687182 206 31966ft 333kts
17-Mar-18 09:43 39.169305 -112.724048 203 31942ft 331kts
17-Mar-18 09:44 39.080630 -112.757296 202 31944ft 333kts
17-Mar-18 09:45 38.991851 -112.789507 201 31935ft 336kts
17-Mar-18 09:46 38.900618 -112.822253 201 31927ft 346kts
17-Mar-18 09:47 38.807015 -112.855293 201 31936ft 357kts
17-Mar-18 09:48 38.710228 -112.889709 201 31932ft 364kts
17-Mar-18 09:49 38.612106 -112.924476 201 31934ft 370kts
17-Mar-18 09:50 38.512534 -112.959687 201 31929ft 373kts
17-Mar-18 09:51 38.412476 -112.994940 201 31928ft 375kts
17-Mar-18 09:52 38.312885 -113.032754 213 31908ft 368kts
17-Mar-18 09:53 38.237374 -113.117064 221 31921ft 363kts
17-Mar-18 09:54 38.170866 -113.182509 219 31918ft 362kts
17-Mar-18 09:55 38.076689 -113.269165 218 31908ft 357kts
17-Mar-18 09:56 37.996211 -113.341581 218 31903ft 353kts
17-Mar-18 09:57 37.929871 -113.400971 218 31903ft 347kts
17-Mar-18 09:58 37.838593 -113.481847 218 31915ft 343kts
17-Mar-18 09:59 37.760884 -113.550788 218 31914ft 340kts
17-Mar-18 10:00 37.696731 -113.607705 218 31914ft 338kts
17-Mar-18 10:01 37.620358 -113.675495 218 31949ft 336kts
17-Mar-18 10:02 37.543831 -113.743032 217 31972ft 336kts
17-Mar-18 10:03 37.467489 -113.810378 216 31975ft 336kts
17-Mar-18 10:04 37.391548 -113.877083 217 31973ft 336kts
17-Mar-18 10:05 37.316168 -113.943158 217 31219ft 319kts
17-Mar-18 10:06 37.243851 -114.006418 216 26630ft 315kts
17-Mar-18 10:07 37.172112 -114.068946 215 24905ft 309kts
17-Mar-18 10:08 37.101702 -114.130189 215 24095ft 308kts
17-Mar-18 10:09 37.030514 -114.191983 215 23970ft 321kts
17-Mar-18 10:10 36.955161 -114.257153 216 23967ft 336kts
17-Mar-18 10:11 36.876962 -114.324388 216 23973ft 348kts
17-Mar-18 10:12 36.796533 -114.393305 216 23968ft 356kts
17-Mar-18 10:13 36.714349 -114.463694 215 23963ft 360kts
17-Mar-18 10:14 36.626273 -114.521828 198 23971ft 367kts
17-Mar-18 10:15 36.528321 -114.549574 196 23957ft 367kts
17-Mar-18 10:16 36.429424 -114.574576 195 23958ft 359kts
17-Mar-18 10:17 36.332889 -114.599104 200 23957ft 351kts
17-Mar-18 10:18 36.281804 -114.688452 247 23969ft 337kts
17-Mar-18 10:19 36.244691 -114.793314 242 23967ft 329kts
17-Mar-18 10:20 36.173221 -114.844064 171 23967ft 335kts
17-Mar-18 10:21 36.105629 -114.770976 140 23321ft 349kts
17-Mar-18 10:22 36.041746 -114.684367 140 22201ft 331kts
17-Mar-18 10:23 35.985622 -114.608719 140 20843ft 325kts
17-Mar-18 10:24 35.925123 -114.528346 140 19171ft 314kts
17-Mar-18 10:25 35.866093 -114.451440 140 17083ft 305kts
17-Mar-18 10:26 35.808264 -114.377906 139 14994ft 294kts
17-Mar-18 10:27 35.751502 -114.308625 150 12944ft 281kts
17-Mar-18 10:28 35.696887 -114.334714 262 12034ft 247kts
17-Mar-18 10:29 35.732124 -114.412963 301 12005ft 278kts
17-Mar-18 10:30 35.778403 -114.490763 301 11993ft 286kts
17-Mar-18 10:31 35.825970 -114.570950 302 12016ft 292kts
17-Mar-18 10:32 35.871355 -114.651729 283 11981ft 288kts
17-Mar-18 10:33 35.880293 -114.740112 271 11771ft 229kts
17-Mar-18 10:34 35.887150 -114.817039 271 10565ft 223kts
17-Mar-18 10:35 35.893635 -114.892076 271 9148ft 218kts
17-Mar-18 10:36 35.898782 -114.954127 271 7927ft 213kts
17-Mar-18 10:37 35.904631 -115.025731 271 6221ft 208kts
17-Mar-18 10:38 35.924766 -115.072881 336 5682ft 172kts
17-Mar-18 10:39 35.962235 -115.092811 346 4097ft 153kts
17-Mar-18 10:40 36.003321 -115.103364 309 3491ft 147kts
17-Mar-18 10:41 35.997773 -115.135120 181 2770ft 120kts
17-Mar-18 10:42 35.971584 -115.135429 175 2501ft 22kts
17-Mar-18 10:43 35.970891 -115.136393 270 2501ft 0kts
17-Mar-18 10:44 35.970603 -115.139466 179 2501ft 5kts

Navigation Log

Ident Type
Flight plan parsing failed, navigation log unavailable